Terminal Aerodrome Forecast
Issued by NWS San Angelo, TX

Current Version | Previous Version | Text Only | Print | Product List | Glossary Off
Versions: 1 2 3 4 5 6 7 8 9 10 11 12 13

000
FTUS44 KSJT 011700
TAFABI
TAF
KABI 011722Z 0118/0218 20014G22KT P6SM FEW060
     FM020000 17011KT P6SM SCT120
     FM020500 17013G21KT P6SM SCT250
     FM021400 22015G22KT P6SM SCT020=

USA.gov is the U.S. government's official web portal to all federal, state and local government web resources and services.